Time;durP1;ratioP1;P1;durP2;ratioP2;P2;SDS_P1;SDS_P2;PMS_P1;PMS_P2;Temp;Humidity;BMP_temperature;BMP_pressure;BME280_temperature;BME280_humidity;BME280_pressure;Samples;Min_cycle;Max_cycle;Signal;HPM_P1;HPM_P2
2022/07/03 00:02:06;;;;;;;9.93;5.10;;;19.50;99.90;;;;;;5075461;28;20044;-68
2022/07/03 00:04:33;;;;;;;6.75;5.28;;;19.40;99.90;;;;;;5075234;28;20041;-69
2022/07/03 00:07:00;;;;;;;8.13;5.50;;;19.40;99.90;;;;;;5074979;28;20036;-68
2022/07/03 00:09:28;;;;;;;10.50;5.80;;;19.40;99.90;;;;;;5073259;28;20094;-69
2022/07/03 00:11:56;;;;;;;7.60;5.32;;;19.30;99.90;;;;;;5073670;28;20495;-68
2022/07/03 00:14:24;;;;;;;7.93;5.47;;;19.30;99.90;;;;;;5073991;28;20048;-69
2022/07/03 00:16:51;;;;;;;9.60;5.40;;;19.30;99.90;;;;;;5074730;28;20053;-69
2022/07/03 00:19:18;;;;;;;6.57;5.28;;;19.30;99.90;;;;;;5075043;28;20408;-68
2022/07/03 00:21:50;;;;;;;7.45;5.50;;;19.30;99.90;;;;;;5074603;28;20051;-69
2022/07/03 00:24:24;;;;;;;8.10;5.07;;;19.30;99.90;;;;;;5074371;28;20090;-69
2022/07/03 00:26:54;;;;;;;8.70;5.30;;;19.20;99.90;;;;;;5074656;28;20047;-69
2022/07/03 00:29:26;;;;;;;8.45;5.40;;;19.30;99.90;;;;;;5073418;28;20045;-68
2022/07/03 00:31:54;;;;;;;9.75;5.55;;;19.30;99.90;;;;;;5074753;28;20101;-68
2022/07/03 00:34:25;;;;;;;7.70;5.43;;;19.20;99.90;;;;;;5074002;28;20144;-69
2022/07/03 00:36:53;;;;;;;7.90;5.13;;;19.20;99.90;;;;;;5074236;28;20048;-68
2022/07/03 00:39:21;;;;;;;8.32;4.88;;;19.20;99.90;;;;;;5073267;28;20499;-69
2022/07/03 00:42:01;;;;;;;8.77;5.20;;;19.10;99.90;;;;;;5073278;28;20557;-69
2022/07/03 00:44:34;;;;;;;6.95;5.68;;;19.00;99.90;;;;;;5072384;28;20491;-69
2022/07/03 00:47:04;;;;;;;7.80;6.05;;;18.90;99.90;;;;;;5074170;28;20079;-70
2022/07/03 00:49:34;;;;;;;9.23;5.22;;;18.80;99.90;;;;;;5074169;28;20479;-69
2022/07/03 00:52:05;;;;;;;11.75;5.88;;;18.80;99.90;;;;;;5073568;28;20044;-68
2022/07/03 00:54:34;;;;;;;8.38;5.40;;;18.80;99.90;;;;;;5081590;28;20040;-69
2022/07/03 00:57:03;;;;;;;10.50;4.97;;;18.80;99.90;;;;;;5090575;28;20044;-70
2022/07/03 00:59:32;;;;;;;6.65;5.13;;;18.80;99.90;;;;;;5090420;28;20052;-69
2022/07/03 01:02:05;;;;;;;8.50;5.80;;;18.70;99.90;;;;;;5085873;28;20044;-67
2022/07/03 01:04:41;;;;;;;8.55;5.72;;;18.90;99.90;;;;;;5094099;28;20453;-69
2022/07/03 01:07:19;;;;;;;14.07;8.95;;;18.90;99.90;;;;;;5094345;28;20597;-71
2022/07/03 01:10:00;;;;;;;8.35;5.75;;;18.80;99.90;;;;;;5085979;28;20379;-72
2022/07/03 01:12:53;;;;;;;17.15;12.70;;;18.80;99.90;;;;;;5082601;28;20102;-69
2022/07/03 01:15:30;;;;;;;7.78;5.65;;;18.80;99.90;;;;;;5089474;28;20141;-69
2022/07/03 01:18:08;;;;;;;7.90;5.55;;;18.80;99.90;;;;;;5055364;28;20102;-70
2022/07/03 01:20:39;;;;;;;10.63;5.93;;;18.80;99.90;;;;;;5055334;28;20086;-69
2022/07/03 01:23:17;;;;;;;9.20;5.32;;;18.70;99.90;;;;;;5082053;28;20040;-71
2022/07/03 01:25:47;;;;;;;9.30;5.60;;;18.70;99.90;;;;;;5073944;28;20041;-70
2022/07/03 01:28:17;;;;;;;10.50;5.45;;;18.70;99.90;;;;;;5073816;28;20041;-69
2022/07/03 01:30:48;;;;;;;10.55;5.57;;;18.60;99.90;;;;;;5073631;28;20432;-69
2022/07/03 01:33:19;;;;;;;8.23;5.40;;;18.70;99.90;;;;;;5073453;28;20044;-69
2022/07/03 01:35:58;;;;;;;8.55;5.60;;;18.60;99.90;;;;;;5072522;28;20106;-69
2022/07/03 01:38:28;;;;;;;7.93;5.47;;;18.60;99.90;;;;;;5072094;28;20072;-69
2022/07/03 01:40:58;;;;;;;7.72;5.35;;;18.60;99.90;;;;;;5081724;28;20036;-69
2022/07/03 01:43:29;;;;;;;7.88;5.53;;;18.50;99.90;;;;;;5092900;28;20048;-70
2022/07/03 01:45:58;;;;;;;10.27;5.50;;;18.50;99.90;;;;;;5093802;28;20181;-69
2022/07/03 01:48:26;;;;;;;10.20;4.90;;;18.50;99.90;;;;;;5094122;28;20036;-68
2022/07/03 01:50:55;;;;;;;7.07;5.38;;;18.60;99.90;;;;;;5094026;28;20079;-69
2022/07/03 01:53:25;;;;;;;7.00;5.32;;;18.60;99.90;;;;;;5088446;28;20044;-69
2022/07/03 01:55:57;;;;;;;8.90;5.30;;;18.50;99.90;;;;;;5087005;28;20036;-68
2022/07/03 01:58:25;;;;;;;8.40;5.88;;;18.30;99.90;;;;;;5073705;28;20049;-69
2022/07/03 02:01:02;;;;;;;9.82;5.55;;;18.30;99.90;;;;;;5073829;28;20037;-69
2022/07/03 02:03:31;;;;;;;7.68;5.43;;;18.40;99.90;;;;;;5073178;28;20407;-69
2022/07/03 02:06:06;;;;;;;11.38;6.18;;;18.40;99.90;;;;;;5073268;28;20109;-68
2022/07/03 02:08:44;;;;;;;10.57;6.00;;;18.30;99.90;;;;;;5073478;28;20051;-68
2022/07/03 02:11:16;;;;;;;12.20;5.55;;;18.30;99.90;;;;;;5073410;28;20075;-69
2022/07/03 02:13:53;;;;;;;9.30;5.82;;;18.20;99.90;;;;;;5072885;28;20055;-69
2022/07/03 02:16:22;;;;;;;8.55;5.68;;;18.30;99.90;;;;;;5073723;28;20047;-68
2022/07/03 02:18:58;;;;;;;8.52;5.70;;;18.30;99.90;;;;;;5073495;28;20100;-69
2022/07/03 02:21:29;;;;;;;8.32;5.55;;;18.30;99.90;;;;;;5073361;28;20426;-68
2022/07/03 02:24:13;;;;;;;10.02;5.28;;;18.20;99.90;;;;;;5072655;28;20049;-68
2022/07/03 02:26:47;;;;;;;7.75;6.25;;;18.20;99.90;;;;;;5073952;28;20040;-69
2022/07/03 02:29:18;;;;;;;11.10;5.05;;;18.20;99.90;;;;;;5081745;28;20094;-69
2022/07/03 02:31:47;;;;;;;13.73;5.38;;;18.20;99.90;;;;;;5093458;28;20040;-69
2022/07/03 02:34:17;;;;;;;7.70;5.80;;;18.10;99.90;;;;;;5084332;28;20052;-69
2022/07/03 02:36:48;;;;;;;10.50;5.40;;;18.10;99.90;;;;;;5075022;28;20080;-69
2022/07/03 02:39:24;;;;;;;11.32;5.22;;;18.20;99.90;;;;;;5077095;28;20064;-69
2022/07/03 02:41:59;;;;;;;8.80;5.80;;;18.20;99.90;;;;;;5076445;28;20087;-69
2022/07/03 02:44:32;;;;;;;7.20;5.28;;;18.20;99.90;;;;;;5076444;28;20410;-70
2022/07/03 02:47:07;;;;;;;8.85;5.68;;;18.10;99.90;;;;;;5077306;28;20075;-69
2022/07/03 02:49:52;;;;;;;6.88;5.13;;;18.20;99.90;;;;;;5076657;28;20041;-69
2022/07/03 02:52:29;;;;;;;7.95;5.25;;;18.20;99.90;;;;;;5075541;28;20143;-69
2022/07/03 02:55:03;;;;;;;6.95;5.20;;;18.10;99.90;;;;;;5076924;28;20109;-69
2022/07/03 02:57:39;;;;;;;7.47;4.95;;;18.10;99.90;;;;;;5076979;28;20036;-69
2022/07/03 03:00:09;;;;;;;6.38;4.78;;;18.10;99.90;;;;;;5076768;28;20076;-70
2022/07/03 03:02:48;;;;;;;8.30;4.80;;;18.20;99.90;;;;;;5076282;28;20042;-69
2022/07/03 03:05:19;;;;;;;9.30;4.60;;;18.10;99.90;;;;;;5056591;28;20123;-69
2022/07/03 03:07:58;;;;;;;8.38;5.00;;;18.00;99.90;;;;;;5070795;28;20078;-69
2022/07/03 03:10:25;;;;;;;7.97;5.55;;;18.10;99.90;;;;;;5074508;28;20037;-69
2022/07/03 03:13:03;;;;;;;8.57;5.65;;;18.10;99.90;;;;;;5082797;28;20071;-69
2022/07/03 03:15:31;;;;;;;7.07;5.20;;;18.10;99.90;;;;;;5077493;28;20035;-70
2022/07/03 03:18:05;;;;;;;12.38;5.40;;;18.20;99.90;;;;;;5083828;28;20151;-69
2022/07/03 03:20:34;;;;;;;11.07;5.03;;;18.30;99.90;;;;;;5081964;28;20041;-69
2022/07/03 03:23:12;;;;;;;8.35;5.57;;;18.20;99.90;;;;;;5085907;28;20036;-69
2022/07/03 03:25:40;;;;;;;11.30;7.00;;;18.20;99.90;;;;;;5076597;28;20492;-69
2022/07/03 03:28:09;;;;;;;10.35;6.22;;;18.20;99.90;;;;;;5081761;28;20565;-69
2022/07/03 03:30:37;;;;;;;11.85;6.40;;;18.30;99.90;;;;;;5084400;28;20048;-70
2022/07/03 03:33:06;;;;;;;9.07;5.82;;;18.20;99.90;;;;;;5085151;28;20045;-69
2022/07/03 03:35:34;;;;;;;8.80;5.18;;;18.30;99.90;;;;;;5086904;28;20052;-70
2022/07/03 03:38:01;;;;;;;7.28;5.15;;;18.40;99.90;;;;;;5088393;28;20083;-70
2022/07/03 03:40:29;;;;;;;8.88;5.53;;;18.30;99.90;;;;;;5088238;28;20072;-70
2022/07/03 03:42:56;;;;;;;11.68;6.13;;;18.40;99.90;;;;;;5089197;28;20072;-70
2022/07/03 03:45:25;;;;;;;7.93;5.38;;;18.40;99.90;;;;;;5079374;28;20079;-70
2022/07/03 03:47:52;;;;;;;8.30;4.97;;;18.50;99.90;;;;;;5087302;28;20062;-71
2022/07/03 03:50:20;;;;;;;6.60;4.50;;;18.60;99.90;;;;;;5085973;28;20479;-70
2022/07/03 03:52:48;;;;;;;8.07;4.90;;;18.70;99.90;;;;;;5085890;28;20036;-71
2022/07/03 03:55:15;;;;;;;9.77;4.57;;;18.80;99.90;;;;;;5087588;28;20044;-70
2022/07/03 03:57:42;;;;;;;9.80;4.90;;;18.90;99.90;;;;;;5088764;28;20131;-70
2022/07/03 04:00:10;;;;;;;8.00;4.55;;;19.30;99.90;;;;;;5075903;28;20460;-70
2022/07/03 04:02:42;;;;;;;9.63;4.40;;;20.00;99.90;;;;;;5075620;28;20047;-70
2022/07/03 04:05:09;;;;;;;8.27;4.43;;;20.80;99.90;;;;;;5075504;28;20078;-70
2022/07/03 04:07:37;;;;;;;7.60;4.40;;;21.60;99.90;;;;;;5075165;28;20045;-70
2022/07/03 04:10:04;;;;;;;7.95;4.07;;;22.00;99.90;;;;;;5075008;28;20040;-70
2022/07/03 04:12:31;;;;;;;9.00;4.47;;;22.40;11.40;;;;;;5083311;28;20082;-70
2022/07/03 04:14:59;;;;;;;6.43;3.85;;;22.70;1.00;;;;;;5090829;28;20499;-70
2022/07/03 04:17:27;;;;;;;8.55;3.80;;;23.20;1.00;;;;;;5078853;28;20052;-70
2022/07/03 04:19:56;;;;;;;9.20;3.70;;;23.50;1.00;;;;;;5075065;28;20068;-70
2022/07/03 04:22:23;;;;;;;13.57;3.90;;;23.80;1.00;;;;;;5074736;28;20399;-70
2022/07/03 04:24:50;;;;;;;5.15;3.65;;;24.10;99.90;;;;;;5075448;28;20160;-70
2022/07/03 04:27:17;;;;;;;6.43;3.75;;;24.50;1.00;;;;;;5075171;28;20564;-70
2022/07/03 04:29:45;;;;;;;6.95;3.70;;;24.70;1.00;;;;;;5075009;28;20083;-70
2022/07/03 04:32:12;;;;;;;4.60;3.10;;;25.30;99.90;;;;;;5074755;28;20049;-71
2022/07/03 04:34:39;;;;;;;6.32;3.40;;;26.00;99.90;;;;;;5074087;28;20052;-70
2022/07/03 04:37:08;;;;;;;5.70;3.70;;;26.60;1.00;;;;;;5074546;28;20488;-70
2022/07/03 04:39:35;;;;;;;7.82;3.60;;;26.90;99.90;;;;;;5085017;28;20391;-70
2022/07/03 04:42:02;;;;;;;7.28;3.50;;;27.20;99.90;;;;;;5078535;28;20127;-71
2022/07/03 04:44:30;;;;;;;10.35;4.07;;;27.50;99.90;;;;;;5082674;28;20072;-70
2022/07/03 04:46:57;;;;;;;12.75;4.93;;;27.50;99.90;;;;;;5073577;28;20050;-70
2022/07/03 04:49:24;;;;;;;6.53;4.05;;;27.30;99.90;;;;;;5074038;28;20069;-70
2022/07/03 04:51:53;;;;;;;6.65;4.25;;;27.30;99.90;;;;;;5073316;28;20098;-70
2022/07/03 04:54:22;;;;;;;9.45;5.53;;;27.50;99.90;;;;;;5074872;28;20079;-70
2022/07/03 04:56:49;;;;;;;6.40;3.95;;;27.60;99.90;;;;;;5074713;28;20048;-71
2022/07/03 04:59:16;;;;;;;7.53;3.67;;;28.10;99.90;;;;;;5074962;28;20044;-70
2022/07/03 05:01:44;;;;;;;5.80;4.15;;;28.60;99.90;;;;;;5074216;28;20499;-70
2022/07/03 05:04:11;;;;;;;4.13;3.25;;;28.20;99.90;;;;;;5074315;28;20487;-70
2022/07/03 05:06:38;;;;;;;7.78;3.45;;;27.80;99.90;;;;;;5074290;28;20067;-71
2022/07/03 05:09:05;;;;;;;6.05;3.42;;;28.10;99.90;;;;;;5073986;28;20473;-70
2022/07/03 05:11:35;;;;;;;6.53;4.20;;;28.20;99.90;;;;;;5072001;28;20051;-71
2022/07/03 05:14:02;;;;;;;7.50;3.30;;;28.80;99.90;;;;;;5063977;28;20496;-71
2022/07/03 05:16:31;;;;;;;6.53;3.67;;;28.90;99.90;;;;;;5074010;28;20098;-71
2022/07/03 05:18:58;;;;;;;5.82;3.40;;;29.30;99.90;;;;;;5073776;28;20079;-70
2022/07/03 05:21:25;;;;;;;6.18;3.42;;;29.50;99.90;;;;;;5073584;28;20036;-71
2022/07/03 05:23:52;;;;;;;7.97;4.72;;;29.30;99.90;;;;;;5066430;28;20063;-71
2022/07/03 05:26:20;;;;;;;8.38;5.22;;;29.20;99.90;;;;;;5053807;28;20374;-71
2022/07/03 05:28:48;;;;;;;7.38;3.70;;;29.60;99.90;;;;;;5053776;28;20052;-71
2022/07/03 05:31:16;;;;;;;10.65;3.20;;;29.70;99.90;;;;;;5071329;28;20044;-70
2022/07/03 05:33:43;;;;;;;4.68;3.55;;;30.20;99.90;;;;;;5072919;28;20127;-70
2022/07/03 05:36:10;;;;;;;6.93;4.50;;;30.30;99.90;;;;;;5061255;28;20390;-70
2022/07/03 05:41:22;;;;;;;7.70;4.05;;;30.30;99.90;;;;;;5059194;28;20032;-69
2022/07/03 05:43:51;;;;;;;9.05;4.72;;;30.40;99.90;;;;;;5057763;28;20051;-71
2022/07/03 05:46:18;;;;;;;7.68;4.50;;;30.20;99.90;;;;;;5072656;28;20083;-70
2022/07/03 05:48:46;;;;;;;10.75;4.80;;;30.30;99.90;;;;;;5073089;28;20064;-71
2022/07/03 05:51:13;;;;;;;7.55;5.20;;;30.20;99.90;;;;;;5070668;28;20526;-70
2022/07/03 05:53:40;;;;;;;6.95;5.63;;;30.20;99.90;;;;;;5071697;28;20036;-70
2022/07/03 05:56:07;;;;;;;9.65;6.18;;;29.90;99.90;;;;;;5073073;28;20032;-70
2022/07/03 05:58:35;;;;;;;11.98;5.78;;;29.90;99.90;;;;;;5073167;28;20040;-70
2022/07/03 06:01:03;;;;;;;7.85;6.00;;;30.40;99.90;;;;;;5063465;28;20049;-70
2022/07/03 06:03:31;;;;;;;6.88;5.45;;;30.50;99.90;;;;;;5058989;28;20065;-71
2022/07/03 06:05:59;;;;;;;9.45;6.28;;;30.50;99.90;;;;;;5065564;28;20048;-70
2022/07/03 06:08:27;;;;;;;12.80;6.18;;;30.20;99.90;;;;;;5069493;28;20087;-70
2022/07/03 06:10:55;;;;;;;10.65;6.80;;;29.70;99.90;;;;;;5061629;28;20545;-71
2022/07/03 06:13:22;;;;;;;17.08;7.32;;;29.10;99.90;;;;;;5076951;28;20082;-70
2022/07/03 06:15:50;;;;;;;14.45;7.82;;;29.10;99.90;;;;;;5066938;28;20556;-71
2022/07/03 06:18:18;;;;;;;13.43;7.60;;;29.20;99.90;;;;;;5084478;28;20052;-71
2022/07/03 06:20:46;;;;;;;17.25;8.23;;;29.40;99.90;;;;;;5062213;28;20439;-70
2022/07/03 06:23:13;;;;;;;14.80;7.63;;;29.50;99.90;;;;;;5064746;28;20079;-71
2022/07/03 06:25:40;;;;;;;14.60;8.18;;;29.40;99.90;;;;;;5067386;28;20041;-70
2022/07/03 06:28:07;;;;;;;22.00;7.95;;;28.80;99.90;;;;;;5077001;28;20058;-69
2022/07/03 06:30:35;;;;;;;10.57;7.90;;;28.60;99.90;;;;;;5066876;28;20094;-70
2022/07/03 06:33:02;;;;;;;15.15;7.72;;;28.40;99.90;;;;;;5059426;28;20037;-68
2022/07/03 06:35:31;;;;;;;15.93;7.45;;;28.30;99.90;;;;;;5076914;28;20060;-69
2022/07/03 06:38:02;;;;;;;14.30;7.32;;;28.60;99.90;;;;;;5076296;28;20086;-68
2022/07/03 06:40:29;;;;;;;11.15;7.20;;;28.70;99.90;;;;;;5080604;28;20086;-68
2022/07/03 06:42:57;;;;;;;12.07;7.38;;;29.20;99.90;;;;;;5075987;28;20515;-68
2022/07/03 06:45:24;;;;;;;9.88;7.15;;;29.00;99.90;;;;;;5084087;28;20487;-70
2022/07/03 06:47:51;;;;;;;15.02;8.20;;;29.00;99.90;;;;;;5083637;28;20085;-70
2022/07/03 06:50:18;;;;;;;11.45;6.78;;;29.20;99.90;;;;;;5081590;28;20544;-69
2022/07/03 06:52:47;;;;;;;11.82;6.25;;;29.40;99.90;;;;;;5088079;28;20449;-69
2022/07/03 06:55:15;;;;;;;13.93;6.53;;;29.40;99.90;;;;;;5082087;28;20052;-70
2022/07/03 06:57:42;;;;;;;10.38;6.15;;;29.40;99.90;;;;;;5090011;28;20090;-70
2022/07/03 07:00:10;;;;;;;12.02;5.93;;;29.50;99.90;;;;;;5079814;28;20045;-69
2022/07/03 07:02:37;;;;;;;8.18;5.28;;;29.80;99.90;;;;;;5076543;28;20528;-70
2022/07/03 07:05:06;;;;;;;11.82;6.82;;;29.60;99.90;;;;;;5065004;28;20094;-68
2022/07/03 07:07:33;;;;;;;11.40;6.55;;;29.80;99.90;;;;;;5069458;28;20541;-69
2022/07/03 07:10:01;;;;;;;14.35;6.60;;;30.00;99.90;;;;;;5076363;28;20131;-70
2022/07/03 07:12:29;;;;;;;14.63;7.28;;;29.40;99.90;;;;;;5075298;28;20041;-69
2022/07/03 07:14:56;;;;;;;10.57;7.00;;;29.40;99.90;;;;;;5075927;28;20054;-69
2022/07/03 07:17:23;;;;;;;11.40;6.80;;;29.80;99.90;;;;;;5076095;28;20068;-68
2022/07/03 07:19:50;;;;;;;12.40;7.28;;;29.90;99.90;;;;;;5075151;28;20044;-69
2022/07/03 07:22:18;;;;;;;12.93;5.70;;;30.00;99.90;;;;;;5074269;28;20048;-69
2022/07/03 07:24:45;;;;;;;15.75;6.75;;;30.00;99.90;;;;;;5073582;28;20164;-69
2022/07/03 07:27:14;;;;;;;10.73;7.55;;;30.10;99.90;;;;;;5072076;28;20036;-70
2022/07/03 07:29:41;;;;;;;9.82;6.85;;;30.00;99.90;;;;;;5071902;28;20496;-70
2022/07/03 07:32:08;;;;;;;14.27;7.63;;;30.10;99.90;;;;;;5072272;28;20040;-69
2022/07/03 07:34:36;;;;;;;10.05;7.03;;;30.30;99.90;;;;;;5071449;28;20123;-71
2022/07/03 07:37:03;;;;;;;14.90;8.10;;;30.30;99.90;;;;;;5074016;28;20169;-70
2022/07/03 07:39:31;;;;;;;11.68;6.22;;;30.30;99.90;;;;;;5081995;28;20101;-70
2022/07/03 07:41:58;;;;;;;12.30;7.20;;;30.40;99.90;;;;;;5087294;28;20094;-70
2022/07/03 07:44:26;;;;;;;10.55;6.53;;;30.30;99.90;;;;;;5095400;28;20044;-68
2022/07/03 07:46:55;;;;;;;8.77;6.15;;;30.10;99.90;;;;;;5095930;28;20044;-68
2022/07/03 07:49:22;;;;;;;11.07;7.20;;;30.10;99.90;;;;;;5088208;28;20037;-69
2022/07/03 07:51:49;;;;;;;13.93;8.10;;;30.20;99.90;;;;;;5065619;28;20075;-69
2022/07/03 07:54:16;;;;;;;13.30;7.22;;;30.40;99.90;;;;;;5074903;28;20102;-70
2022/07/03 07:56:44;;;;;;;11.55;6.15;;;30.50;99.90;;;;;;5075039;28;20499;-69
2022/07/03 07:59:11;;;;;;;11.85;6.65;;;30.60;99.90;;;;;;5075204;28;20146;-69
2022/07/03 08:07:09;;;;;;;10.90;5.55;;;31.10;99.90;;;;;;5074270;28;19948;-69
2022/07/03 08:09:36;;;;;;;11.73;6.25;;;31.10;99.90;;;;;;5072981;28;20041;-69
2022/07/03 08:12:04;;;;;;;13.18;6.28;;;31.00;99.90;;;;;;5073621;28;20044;-69
2022/07/03 08:14:31;;;;;;;13.20;6.45;;;30.50;99.90;;;;;;5074034;28;20087;-70
2022/07/03 08:17:00;;;;;;;10.18;6.95;;;30.70;99.90;;;;;;5067235;28;20070;-69
2022/07/03 08:19:27;;;;;;;9.55;6.63;;;30.90;99.90;;;;;;5074595;28;20048;-68
2022/07/03 08:21:55;;;;;;;14.32;6.35;;;31.10;99.90;;;;;;5074705;28;20089;-69
2022/07/03 08:24:22;;;;;;;11.98;6.63;;;31.20;99.90;;;;;;5074936;28;20130;-69
2022/07/03 08:26:49;;;;;;;11.70;6.50;;;31.10;99.90;;;;;;5075896;28;20061;-68
2022/07/03 08:29:16;;;;;;;14.30;6.13;;;31.10;99.90;;;;;;5075072;28;20079;-68
2022/07/03 08:31:44;;;;;;;12.63;7.90;;;31.30;99.90;;;;;;5075532;28;20097;-68
2022/07/03 08:34:13;;;;;;;12.98;6.00;;;31.10;99.90;;;;;;5073024;28;20045;-69
2022/07/03 08:36:41;;;;;;;9.82;6.07;;;31.00;99.90;;;;;;5059460;28;20052;-69
2022/07/03 08:39:09;;;;;;;9.23;6.30;;;31.20;99.90;;;;;;5069655;28;20345;-67
2022/07/03 08:41:40;;;;;;;11.30;6.70;;;31.20;99.90;;;;;;5074368;28;20051;-68
2022/07/03 08:44:09;;;;;;;10.00;6.13;;;31.30;99.90;;;;;;5074239;28;20450;-68
2022/07/03 08:46:39;;;;;;;12.82;6.20;;;31.10;99.90;;;;;;5074354;28;20040;-69
2022/07/03 08:49:07;;;;;;;9.32;6.35;;;31.30;99.90;;;;;;5073255;28;20075;-69
2022/07/03 08:51:36;;;;;;;10.77;6.10;;;31.20;99.90;;;;;;5074037;28;20045;-69
2022/07/03 08:54:05;;;;;;;7.85;5.88;;;31.30;99.90;;;;;;5073052;28;20090;-69
2022/07/03 08:56:33;;;;;;;10.23;5.97;;;31.50;99.90;;;;;;5073392;28;20503;-69
2022/07/03 08:59:01;;;;;;;9.15;6.35;;;31.80;99.90;;;;;;5073787;28;20114;-68
2022/07/03 09:01:29;;;;;;;15.70;6.70;;;32.00;99.90;;;;;;5072563;28;20102;-68
2022/07/03 09:03:59;;;;;;;7.80;6.10;;;32.10;99.90;;;;;;5075641;28;20041;-78
2022/07/03 09:06:33;;;;;;;11.55;5.93;;;32.00;99.90;;;;;;5072929;28;20052;-68
2022/07/03 09:09:04;;;;;;;8.73;4.95;;;32.10;99.90;;;;;;5076226;28;20174;-69
2022/07/03 09:11:32;;;;;;;11.20;5.80;;;32.00;99.90;;;;;;5073139;28;20102;-69
2022/07/03 09:13:59;;;;;;;9.40;5.60;;;31.70;99.90;;;;;;5074134;28;20040;-69
2022/07/03 09:16:27;;;;;;;10.98;5.45;;;31.60;99.90;;;;;;5073100;28;20036;-69
2022/07/03 09:18:54;;;;;;;7.78;5.80;;;31.60;99.90;;;;;;5073484;28;20442;-70
2022/07/03 09:21:21;;;;;;;8.43;6.05;;;31.60;99.90;;;;;;5073471;28;20040;-72
2022/07/03 09:23:50;;;;;;;9.75;6.03;;;31.70;99.90;;;;;;5072556;28;20471;-69
2022/07/03 09:26:21;;;;;;;7.78;5.60;;;31.80;99.90;;;;;;5073426;28;20113;-69
2022/07/03 09:28:51;;;;;;;11.23;5.97;;;31.70;99.90;;;;;;5073946;28;20103;-69
2022/07/03 09:31:20;;;;;;;8.63;6.15;;;31.50;99.90;;;;;;5073410;28;20098;-70
2022/07/03 09:33:52;;;;;;;18.63;6.70;;;31.60;99.90;;;;;;5072419;28;20491;-69
2022/07/03 09:36:22;;;;;;;28.23;9.18;;;31.80;99.90;;;;;;5074056;28;20041;-72
2022/07/03 09:38:49;;;;;;;9.57;5.45;;;32.00;99.90;;;;;;5073499;28;20040;-73
2022/07/03 09:41:18;;;;;;;11.20;5.28;;;32.20;99.90;;;;;;5072993;28;20484;-72
2022/07/03 09:43:45;;;;;;;11.75;4.15;;;32.30;99.90;;;;;;5072959;28;20041;-72
2022/07/03 09:46:13;;;;;;;9.90;5.78;;;32.30;99.90;;;;;;5073500;28;20490;-72
2022/07/03 09:48:42;;;;;;;9.18;4.93;;;32.40;99.90;;;;;;5072482;28;20041;-73
2022/07/03 09:51:23;;;;;;;7.25;4.00;;;32.60;99.90;;;;;;5072803;28;20048;-73
2022/07/03 09:53:56;;;;;;;6.22;3.97;;;32.20;98.60;;;;;;5072453;28;20040;-73
2022/07/03 09:56:26;;;;;;;7.63;4.20;;;32.00;99.20;;;;;;5072645;28;20040;-73
2022/07/03 09:59:08;;;;;;;8.30;4.05;;;31.70;99.40;;;;;;5072613;28;20037;-72
2022/07/03 10:01:36;;;;;;;14.55;4.82;;;31.70;99.60;;;;;;5073091;28;20060;-72
2022/07/03 10:04:12;;;;;;;7.15;4.63;;;31.60;99.70;;;;;;5071979;28;20033;-71
2022/07/03 10:06:53;;;;;;;9.10;4.55;;;31.50;99.40;;;;;;5069594;28;20392;-71
2022/07/03 10:09:21;;;;;;;6.57;4.80;;;31.40;99.70;;;;;;5072748;28;20036;-72
2022/07/03 10:11:51;;;;;;;10.68;4.95;;;31.50;99.80;;;;;;5073002;28;20048;-71
2022/07/03 10:14:19;;;;;;;7.60;4.78;;;31.50;99.50;;;;;;5072179;28;20057;-70
2022/07/03 10:16:47;;;;;;;8.40;4.90;;;31.40;99.90;;;;;;5072827;28;20487;-71
2022/07/03 10:19:18;;;;;;;9.05;4.95;;;31.30;99.80;;;;;;5072923;28;20045;-72
2022/07/03 10:21:51;;;;;;;7.85;6.13;;;31.40;99.70;;;;;;5072990;28;20051;-72
2022/07/03 10:24:19;;;;;;;9.95;5.07;;;31.40;99.90;;;;;;5072253;28;20480;-70
2022/07/03 10:26:48;;;;;;;10.85;5.30;;;31.00;99.90;;;;;;5072363;28;20492;-69
2022/07/03 10:29:17;;;;;;;8.88;5.45;;;31.10;99.90;;;;;;5081318;28;20429;-71
2022/07/03 10:31:48;;;;;;;7.07;4.88;;;31.00;99.90;;;;;;5078785;28;20047;-72
2022/07/03 10:34:20;;;;;;;6.90;4.90;;;30.90;99.90;;;;;;5073905;28;20067;-72
2022/07/03 10:36:51;;;;;;;8.15;4.90;;;30.80;99.90;;;;;;5093033;28;20044;-73
2022/07/03 10:39:34;;;;;;;9.25;5.28;;;31.20;99.90;;;;;;5072673;28;20044;-71
2022/07/03 10:45:06;;;;;;;12.57;5.45;;;31.50;99.90;;;;;;5073002;28;20033;-72
2022/07/03 10:47:42;;;;;;;8.38;5.22;;;31.70;99.60;;;;;;5072392;28;20055;-73
2022/07/03 10:50:12;;;;;;;9.93;4.93;;;31.50;99.60;;;;;;5072602;28;20156;-72
2022/07/03 10:52:40;;;;;;;11.05;5.20;;;31.50;99.30;;;;;;5072252;28;20040;-72
2022/07/03 10:55:08;;;;;;;6.47;4.55;;;31.50;99.10;;;;;;5072118;28;20047;-72
2022/07/03 10:57:35;;;;;;;7.03;4.43;;;31.60;98.90;;;;;;5074316;28;20052;-72
2022/07/03 11:00:12;;;;;;;7.38;5.13;;;31.30;99.00;;;;;;5075576;28;20052;-78
2022/07/03 11:02:41;;;;;;;7.05;5.15;;;31.20;99.50;;;;;;5075882;28;20036;-73
2022/07/03 11:05:10;;;;;;;7.57;4.80;;;31.60;98.60;;;;;;5076077;28;20044;-72
2022/07/03 11:07:44;;;;;;;8.25;5.13;;;31.60;97.90;;;;;;5075579;28;20078;-72
2022/07/03 11:10:30;;;;;;;6.78;5.40;;;31.40;98.40;;;;;;5056398;28;20064;-73
2022/07/03 11:12:59;;;;;;;9.15;4.90;;;31.50;98.70;;;;;;5055762;28;20040;-73
2022/07/03 11:15:29;;;;;;;9.73;5.15;;;31.60;98.60;;;;;;5056049;28;20049;-73
2022/07/03 11:18:16;;;;;;;9.82;5.70;;;31.70;97.40;;;;;;5063749;28;20041;-74
2022/07/03 11:21:22;;;;;;;10.25;5.38;;;31.40;98.20;;;;;;5075935;28;20090;-73
2022/07/03 11:24:39;;;;;;;10.05;5.50;;;31.50;98.10;;;;;;5068301;28;20041;-73
2022/07/03 11:27:24;;;;;;;7.07;5.40;;;31.50;98.20;;;;;;5032912;28;20080;-73
2022/07/03 11:29:57;;;;;;;12.03;5.43;;;31.70;98.10;;;;;;5071265;28;20106;-74
2022/07/03 11:32:49;;;;;;;9.43;6.40;;;31.60;98.20;;;;;;5075657;28;20320;-70
2022/07/03 11:35:53;;;;;;;12.05;5.70;;;31.50;97.80;;;;;;5075861;28;20049;-72
2022/07/03 11:38:24;;;;;;;8.98;5.10;;;31.50;98.30;;;;;;5076243;28;20072;-72
2022/07/03 11:40:53;;;;;;;7.57;5.30;;;31.60;98.60;;;;;;5076489;28;20044;-74
2022/07/03 11:43:21;;;;;;;10.68;5.40;;;31.60;98.50;;;;;;5075793;28;20098;-72
2022/07/03 11:45:49;;;;;;;11.23;5.88;;;31.50;98.40;;;;;;5074604;28;20044;-72
2022/07/03 11:48:19;;;;;;;9.63;5.40;;;31.50;98.40;;;;;;5075670;28;20518;-73
2022/07/03 11:50:48;;;;;;;10.05;6.70;;;31.30;99.20;;;;;;5077714;28;20048;-72
2022/07/03 11:53:27;;;;;;;67.13;58.63;;;31.40;99.10;;;;;;5090478;28;20085;-73
2022/07/03 11:55:56;;;;;;;15.77;9.52;;;31.60;99.00;;;;;;5083960;28;20369;-73
2022/07/03 11:58:25;;;;;;;22.30;15.05;;;31.60;98.50;;;;;;5092944;28;20048;-73
2022/07/03 12:00:53;;;;;;;13.98;8.55;;;31.40;98.40;;;;;;5084180;28;20036;-74
2022/07/03 12:03:26;;;;;;;17.23;11.70;;;31.50;98.30;;;;;;5076897;28;20040;-73
2022/07/03 12:05:56;;;;;;;9.25;5.88;;;31.70;98.40;;;;;;5082747;28;20509;-71
2022/07/03 12:08:28;;;;;;;9.57;4.82;;;31.30;98.70;;;;;;5085176;28;20063;-76
2022/07/03 12:11:04;;;;;;;9.25;5.22;;;31.30;98.90;;;;;;5090528;28;20064;-80
2022/07/03 12:13:33;;;;;;;12.20;6.18;;;31.40;99.40;;;;;;5075292;28;20123;-72
2022/07/03 12:16:09;;;;;;;35.72;21.40;;;31.50;99.50;;;;;;5074804;28;20094;-72
2022/07/03 12:18:50;;;;;;;14.23;7.03;;;31.60;99.60;;;;;;5083311;28;20040;-72
2022/07/03 12:21:19;;;;;;;7.75;5.35;;;31.90;98.80;;;;;;5093676;28;20081;-72
2022/07/03 12:23:48;;;;;;;11.13;5.85;;;32.00;98.90;;;;;;5082790;28;20036;-72
2022/07/03 12:26:29;;;;;;;6.82;5.25;;;31.80;98.90;;;;;;5074669;28;20047;-72
2022/07/03 12:28:57;;;;;;;9.30;6.22;;;31.90;98.70;;;;;;5083445;28;20058;-73
2022/07/03 12:31:25;;;;;;;12.60;6.20;;;31.80;98.60;;;;;;5085312;28;20556;-73
2022/07/03 12:33:54;;;;;;;14.38;6.25;;;31.80;98.70;;;;;;5083040;28;20055;-72
2022/07/03 12:36:21;;;;;;;10.73;5.75;;;31.70;98.80;;;;;;5074113;28;20090;-73
2022/07/03 12:38:49;;;;;;;11.43;6.28;;;31.50;98.80;;;;;;5074510;28;20040;-72
2022/07/03 12:41:17;;;;;;;9.82;6.00;;;31.50;99.20;;;;;;5074079;28;20051;-71
2022/07/03 12:43:48;;;;;;;15.88;6.22;;;31.60;99.80;;;;;;5073968;28;20102;-71
2022/07/03 12:46:19;;;;;;;8.15;6.32;;;31.60;99.50;;;;;;5077727;28;20055;-72
2022/07/03 12:48:48;;;;;;;13.75;6.53;;;31.30;99.70;;;;;;5079356;28;20036;-72
2022/07/03 12:51:17;;;;;;;11.10;6.43;;;31.60;99.60;;;;;;5084147;28;20071;-71
2022/07/03 12:53:44;;;;;;;9.05;5.75;;;31.50;99.80;;;;;;5079915;28;20068;-71
2022/07/03 12:56:12;;;;;;;8.38;5.70;;;31.70;99.70;;;;;;5083652;28;20071;-71
2022/07/03 13:01:26;;;;;;;;;;;31.50;99.70;;;;;;5091893;28;20051;-72
2022/07/03 13:03:53;;;;;;;8.57;5.80;;;31.10;99.90;;;;;;5078784;28;19921;-73
2022/07/03 13:06:24;;;;;;;9.15;6.57;;;31.00;99.90;;;;;;5076787;28;20444;-71
2022/07/03 13:08:54;;;;;;;11.15;6.57;;;31.00;99.90;;;;;;5081243;28;20047;-71
2022/07/03 13:11:29;;;;;;;9.73;6.22;;;31.10;99.90;;;;;;5072405;28;20561;-71
2022/07/03 13:14:04;;;;;;;8.82;5.93;;;31.30;99.90;;;;;;5073737;28;20044;-71